sensor_id;sensor_type;location;lat;lon;timestamp;pressure;altitude;pressure_sealevel;temperature;humidity
65659;BME280;60181;53.258;6.932;2023-05-09T00:02:17;101968.78;;;17.60;73.56
65659;BME280;60181;53.258;6.932;2023-05-09T00:06:21;101966.63;;;17.60;73.42
65659;BME280;60181;53.258;6.932;2023-05-09T00:10:26;101962.81;;;17.60;73.67
65659;BME280;60181;53.258;6.932;2023-05-09T00:14:29;101959.58;;;17.60;73.62
65659;BME280;60181;53.258;6.932;2023-05-09T00:18:33;101954.28;;;17.60;73.55
65659;BME280;60181;53.258;6.932;2023-05-09T00:22:38;101948.49;;;17.60;73.28
65659;BME280;60181;53.258;6.932;2023-05-09T00:26:41;101943.35;;;17.60;73.50
65659;BME280;60181;53.258;6.932;2023-05-09T00:30:45;101937.77;;;17.59;73.36
65659;BME280;60181;53.258;6.932;2023-05-09T00:34:49;101933.06;;;17.59;73.41
65659;BME280;60181;53.258;6.932;2023-05-09T00:38:53;101929.35;;;17.60;73.16
65659;BME280;60181;53.258;6.932;2023-05-09T00:42:58;101924.22;;;17.61;73.56
65659;BME280;60181;53.258;6.932;2023-05-09T00:47:01;101919.28;;;17.62;73.56
65659;BME280;60181;53.258;6.932;2023-05-09T00:51:05;101914.22;;;17.62;73.57
65659;BME280;60181;53.258;6.932;2023-05-09T00:55:09;101910.00;;;17.62;73.66
65659;BME280;60181;53.258;6.932;2023-05-09T00:59:13;101906.49;;;17.61;73.56
65659;BME280;60181;53.258;6.932;2023-05-09T01:03:17;101902.76;;;17.61;73.59
65659;BME280;60181;53.258;6.932;2023-05-09T01:07:25;101897.72;;;17.61;73.21
65659;BME280;60181;53.258;6.932;2023-05-09T01:11:30;101891.26;;;17.61;73.22
65659;BME280;60181;53.258;6.932;2023-05-09T01:15:33;101885.85;;;17.61;73.14
65659;BME280;60181;53.258;6.932;2023-05-09T01:27:46;101868.28;;;17.61;72.95
65659;BME280;60181;53.258;6.932;2023-05-09T01:31:45;101862.98;;;17.61;72.88
65659;BME280;60181;53.258;6.932;2023-05-09T01:35:50;101857.84;;;17.61;72.80
65659;BME280;60181;53.258;6.932;2023-05-09T01:39:54;101853.20;;;17.61;72.93
65659;BME280;60181;53.258;6.932;2023-05-09T01:43:58;101848.07;;;17.61;72.86
65659;BME280;60181;53.258;6.932;2023-05-09T01:48:01;101843.02;;;17.60;72.96
65659;BME280;60181;53.258;6.932;2023-05-09T01:52:09;101837.72;;;17.60;73.06
65659;BME280;60181;53.258;6.932;2023-05-09T02:12:27;101822.52;;;17.58;72.50
65659;BME280;60181;53.258;6.932;2023-05-09T02:16:31;101821.67;;;17.57;72.42
65659;BME280;60181;53.258;6.932;2023-05-09T02:20:35;101821.74;;;17.56;72.38
65659;BME280;60181;53.258;6.932;2023-05-09T02:24:41;101821.89;;;17.55;72.14
65659;BME280;60181;53.258;6.932;2023-05-09T02:28:43;101820.31;;;17.53;72.26
65659;BME280;60181;53.258;6.932;2023-05-09T02:32:47;101818.13;;;17.52;71.99
65659;BME280;60181;53.258;6.932;2023-05-09T02:36:51;101815.13;;;17.51;72.26
65659;BME280;60181;53.258;6.932;2023-05-09T02:40:55;101812.05;;;17.51;71.90
65659;BME280;60181;53.258;6.932;2023-05-09T02:44:59;101808.99;;;17.50;72.21
65659;BME280;60181;53.258;6.932;2023-05-09T02:49:03;101805.40;;;17.49;71.60
65659;BME280;60181;53.258;6.932;2023-05-09T02:53:07;101800.87;;;17.50;71.68
65659;BME280;60181;53.258;6.932;2023-05-09T02:57:11;101796.78;;;17.49;71.73
65659;BME280;60181;53.258;6.932;2023-05-09T03:01:16;101793.09;;;17.50;71.78
65659;BME280;60181;53.258;6.932;2023-05-09T03:05:19;101790.26;;;17.50;72.69
65659;BME280;60181;53.258;6.932;2023-05-09T03:09:23;101786.52;;;17.49;71.64
65659;BME280;60181;53.258;6.932;2023-05-09T03:13:27;101783.45;;;17.49;71.58
65659;BME280;60181;53.258;6.932;2023-05-09T03:17:31;101779.83;;;17.50;72.40
65659;BME280;60181;53.258;6.932;2023-05-09T03:21:35;101776.08;;;17.49;71.26
65659;BME280;60181;53.258;6.932;2023-05-09T03:25:39;101771.95;;;17.48;71.65
65659;BME280;60181;53.258;6.932;2023-05-09T03:29:43;101767.77;;;17.47;71.42
65659;BME280;60181;53.258;6.932;2023-05-09T03:33:47;101762.87;;;17.45;71.30
65659;BME280;60181;53.258;6.932;2023-05-09T03:37:51;101759.61;;;17.43;71.15
65659;BME280;60181;53.258;6.932;2023-05-09T03:41:55;101757.83;;;17.41;71.11
65659;BME280;60181;53.258;6.932;2023-05-09T03:45:59;101755.25;;;17.40;71.12
65659;BME280;60181;53.258;6.932;2023-05-09T03:50:04;101752.39;;;17.38;70.95
65659;BME280;60181;53.258;6.932;2023-05-09T03:54:07;101749.33;;;17.36;70.91
65659;BME280;60181;53.258;6.932;2023-05-09T03:58:11;101745.89;;;17.35;70.81
65659;BME280;60181;53.258;6.932;2023-05-09T04:02:15;101742.38;;;17.32;70.91
65659;BME280;60181;53.258;6.932;2023-05-09T04:06:19;101740.13;;;17.31;70.81
65659;BME280;60181;53.258;6.932;2023-05-09T04:10:23;101738.26;;;17.29;70.84
65659;BME280;60181;53.258;6.932;2023-05-09T04:14:27;101737.02;;;17.28;70.76
65659;BME280;60181;53.258;6.932;2023-05-09T04:18:31;101734.84;;;17.26;70.81
65659;BME280;60181;53.258;6.932;2023-05-09T04:22:35;101733.23;;;17.25;70.84
65659;BME280;60181;53.258;6.932;2023-05-09T04:26:39;101731.98;;;17.24;70.85
65659;BME280;60181;53.258;6.932;2023-05-09T04:30:43;101730.91;;;17.23;70.72
65659;BME280;60181;53.258;6.932;2023-05-09T04:34:47;101730.22;;;17.22;70.76
65659;BME280;60181;53.258;6.932;2023-05-09T04:38:51;101729.46;;;17.21;70.71
65659;BME280;60181;53.258;6.932;2023-05-09T04:42:55;101726.95;;;17.21;70.57
65659;BME280;60181;53.258;6.932;2023-05-09T04:46:59;101723.49;;;17.20;70.71
65659;BME280;60181;53.258;6.932;2023-05-09T04:51:03;101719.74;;;17.19;70.65
65659;BME280;60181;53.258;6.932;2023-05-09T04:55:07;101716.83;;;17.18;70.68
65659;BME280;60181;53.258;6.932;2023-05-09T04:59:11;101715.09;;;17.18;70.61
65659;BME280;60181;53.258;6.932;2023-05-09T05:03:15;101712.60;;;17.18;70.53
65659;BME280;60181;53.258;6.932;2023-05-09T05:07:19;101709.70;;;17.17;70.60
65659;BME280;60181;53.258;6.932;2023-05-09T05:11:23;101706.56;;;17.17;70.40
65659;BME280;60181;53.258;6.932;2023-05-09T05:15:27;101704.99;;;17.18;70.24
65659;BME280;60181;53.258;6.932;2023-05-09T05:19:31;101701.61;;;17.19;70.18
65659;BME280;60181;53.258;6.932;2023-05-09T05:23:35;101697.55;;;17.19;70.17
65659;BME280;60181;53.258;6.932;2023-05-09T05:27:39;101695.09;;;17.20;70.08
65659;BME280;60181;53.258;6.932;2023-05-09T05:31:43;101692.93;;;17.20;69.99
65659;BME280;60181;53.258;6.932;2023-05-09T05:35:47;101689.64;;;17.21;70.05
65659;BME280;60181;53.258;6.932;2023-05-09T05:39:51;101686.41;;;17.21;70.00
65659;BME280;60181;53.258;6.932;2023-05-09T05:43:55;101683.84;;;17.21;70.14
65659;BME280;60181;53.258;6.932;2023-05-09T05:47:59;101681.60;;;17.22;70.23
65659;BME280;60181;53.258;6.932;2023-05-09T05:52:03;101678.74;;;17.22;70.28
65659;BME280;60181;53.258;6.932;2023-05-09T05:56:07;101676.32;;;17.23;70.32
65659;BME280;60181;53.258;6.932;2023-05-09T06:00:11;101675.02;;;17.24;70.25
65659;BME280;60181;53.258;6.932;2023-05-09T06:04:15;101672.14;;;17.24;70.25
65659;BME280;60181;53.258;6.932;2023-05-09T06:08:19;101668.77;;;17.25;70.23
65659;BME280;60181;53.258;6.932;2023-05-09T06:12:23;101664.95;;;17.26;70.49
65659;BME280;60181;53.258;6.932;2023-05-09T06:16:27;101661.00;;;17.28;70.23
65659;BME280;60181;53.258;6.932;2023-05-09T06:20:31;101657.40;;;17.31;70.59
65659;BME280;60181;53.258;6.932;2023-05-09T06:24:35;101653.62;;;17.32;70.77
65659;BME280;60181;53.258;6.932;2023-05-09T06:28:39;101649.05;;;17.31;70.98
65659;BME280;60181;53.258;6.932;2023-05-09T06:32:43;101644.25;;;17.31;70.93
65659;BME280;60181;53.258;6.932;2023-05-09T06:36:47;101639.92;;;17.30;70.99
65659;BME280;60181;53.258;6.932;2023-05-09T06:40:51;101636.13;;;17.30;70.94
65659;BME280;60181;53.258;6.932;2023-05-09T06:44:55;101630.39;;;17.29;71.00
65659;BME280;60181;53.258;6.932;2023-05-09T06:48:59;101624.91;;;17.28;71.08
65659;BME280;60181;53.258;6.932;2023-05-09T06:53:03;101618.02;;;17.27;71.00
65659;BME280;60181;53.258;6.932;2023-05-09T06:57:07;101611.83;;;17.27;70.97
65659;BME280;60181;53.258;6.932;2023-05-09T07:01:11;101606.11;;;17.28;70.98
65659;BME280;60181;53.258;6.932;2023-05-09T07:05:15;101600.17;;;17.29;70.95
65659;BME280;60181;53.258;6.932;2023-05-09T07:09:19;101594.31;;;17.30;70.74
65659;BME280;60181;53.258;6.932;2023-05-09T07:13:23;101589.46;;;17.33;70.51
65659;BME280;60181;53.258;6.932;2023-05-09T07:17:27;101584.20;;;17.36;70.69
65659;BME280;60181;53.258;6.932;2023-05-09T07:21:31;101580.85;;;17.40;70.41
65659;BME280;60181;53.258;6.932;2023-05-09T07:25:35;101576.82;;;17.42;70.76
65659;BME280;60181;53.258;6.932;2023-05-09T07:29:39;101572.60;;;17.44;70.77
65659;BME280;60181;53.258;6.932;2023-05-09T07:33:43;101569.82;;;17.45;71.00
65659;BME280;60181;53.258;6.932;2023-05-09T07:37:47;101566.75;;;17.46;71.09
65659;BME280;60181;53.258;6.932;2023-05-09T07:41:51;101564.18;;;17.45;71.32
65659;BME280;60181;53.258;6.932;2023-05-09T07:45:55;101560.36;;;17.44;71.58
65659;BME280;60181;53.258;6.932;2023-05-09T07:49:59;101553.64;;;17.44;71.37
65659;BME280;60181;53.258;6.932;2023-05-09T07:54:03;101548.00;;;17.44;71.46
65659;BME280;60181;53.258;6.932;2023-05-09T07:58:07;101541.88;;;17.44;71.41
65659;BME280;60181;53.258;6.932;2023-05-09T08:02:11;101536.47;;;17.43;71.48
65659;BME280;60181;53.258;6.932;2023-05-09T08:06:15;101533.58;;;17.43;71.70
65659;BME280;60181;53.258;6.932;2023-05-09T08:10:19;101528.30;;;17.42;71.77
65659;BME280;60181;53.258;6.932;2023-05-09T08:14:23;101523.89;;;17.43;71.48
65659;BME280;60181;53.258;6.932;2023-05-09T08:18:27;101519.09;;;17.44;71.54
65659;BME280;60181;53.258;6.932;2023-05-09T08:22:31;101514.23;;;17.45;71.74
65659;BME280;60181;53.258;6.932;2023-05-09T08:26:35;101508.76;;;17.45;71.81
65659;BME280;60181;53.258;6.932;2023-05-09T08:30:39;101504.80;;;17.45;71.96
65659;BME280;60181;53.258;6.932;2023-05-09T08:34:43;101501.37;;;17.44;71.91
65659;BME280;60181;53.258;6.932;2023-05-09T08:38:47;101499.00;;;17.44;71.88
65659;BME280;60181;53.258;6.932;2023-05-09T08:42:51;101496.00;;;17.44;72.02
65659;BME280;60181;53.258;6.932;2023-05-09T08:46:55;101493.52;;;17.43;72.25
65659;BME280;60181;53.258;6.932;2023-05-09T08:50:59;101491.87;;;17.43;72.12
65659;BME280;60181;53.258;6.932;2023-05-09T08:55:03;101488.94;;;17.43;72.14
65659;BME280;60181;53.258;6.932;2023-05-09T08:59:07;101487.56;;;17.43;72.23
65659;BME280;60181;53.258;6.932;2023-05-09T09:03:11;101486.22;;;17.44;72.37
65659;BME280;60181;53.258;6.932;2023-05-09T09:07:15;101483.25;;;17.43;72.48
65659;BME280;60181;53.258;6.932;2023-05-09T09:11:19;101480.45;;;17.44;72.16
65659;BME280;60181;53.258;6.932;2023-05-09T09:15:23;101477.47;;;17.46;72.21
65659;BME280;60181;53.258;6.932;2023-05-09T09:19:28;101472.05;;;17.49;72.16
65659;BME280;60181;53.258;6.932;2023-05-09T09:23:31;101465.80;;;17.53;71.79
65659;BME280;60181;53.258;6.932;2023-05-09T09:27:35;101458.40;;;17.60;71.93
65659;BME280;60181;53.258;6.932;2023-05-09T09:31:39;101450.60;;;17.67;72.15
65659;BME280;60181;53.258;6.932;2023-05-09T09:35:43;101442.78;;;17.72;71.62
65659;BME280;60181;53.258;6.932;2023-05-09T09:39:53;101437.58;;;17.76;72.10
65659;BME280;60181;53.258;6.932;2023-05-09T09:43:51;101432.14;;;17.77;72.34
65659;BME280;60181;53.258;6.932;2023-05-09T09:47:55;101426.75;;;17.78;72.60
65659;BME280;60181;53.258;6.932;2023-05-09T09:51:59;101423.19;;;17.77;72.89
65659;BME280;60181;53.258;6.932;2023-05-09T09:56:03;101419.11;;;17.77;72.77
65659;BME280;60181;53.258;6.932;2023-05-09T10:00:07;101415.72;;;17.77;72.97
65659;BME280;60181;53.258;6.932;2023-05-09T10:04:14;101412.30;;;17.76;72.72
65659;BME280;60181;53.258;6.932;2023-05-09T10:08:15;101410.60;;;17.76;72.70
65659;BME280;60181;53.258;6.932;2023-05-09T10:12:19;101408.00;;;17.76;72.73
65659;BME280;60181;53.258;6.932;2023-05-09T10:16:23;101406.02;;;17.76;72.99
65659;BME280;60181;53.258;6.932;2023-05-09T10:20:27;101404.50;;;17.75;72.81
65659;BME280;60181;53.258;6.932;2023-05-09T10:28:35;101400.62;;;17.74;72.99
65659;BME280;60181;53.258;6.932;2023-05-09T10:32:46;101397.89;;;17.75;72.92
65659;BME280;60181;53.258;6.932;2023-05-09T10:36:43;101394.23;;;17.75;72.95
65659;BME280;60181;53.258;6.932;2023-05-09T10:40:47;101391.94;;;17.76;73.05
65659;BME280;60181;53.258;6.932;2023-05-09T10:44:51;101387.87;;;17.77;73.01
65659;BME280;60181;53.258;6.932;2023-05-09T10:48:55;101384.34;;;17.79;72.85
65659;BME280;60181;53.258;6.932;2023-05-09T10:57:04;101376.73;;;17.81;73.25
65659;BME280;60181;53.258;6.932;2023-05-09T11:01:07;101372.50;;;17.81;73.17
65659;BME280;60181;53.258;6.932;2023-05-09T11:05:17;101368.52;;;17.80;73.22
65659;BME280;60181;53.258;6.932;2023-05-09T11:13:19;101360.86;;;17.77;73.36
65659;BME280;60181;53.258;6.932;2023-05-09T11:17:27;101357.79;;;17.76;73.46
65659;BME280;60181;53.258;6.932;2023-05-09T11:21:27;101355.22;;;17.75;73.33
65659;BME280;60181;53.258;6.932;2023-05-09T11:25:31;101352.73;;;17.74;73.52
65659;BME280;60181;53.258;6.932;2023-05-09T11:29:41;101349.31;;;17.74;73.38
65659;BME280;60181;53.258;6.932;2023-05-09T11:33:39;101345.25;;;17.73;73.51
65659;BME280;60181;53.258;6.932;2023-05-09T11:37:43;101341.43;;;17.72;73.58
65659;BME280;60181;53.258;6.932;2023-05-09T11:41:47;101336.95;;;17.71;73.54
65659;BME280;60181;53.258;6.932;2023-05-09T11:45:51;101332.99;;;17.70;73.72
65659;BME280;60181;53.258;6.932;2023-05-09T11:49:55;101329.33;;;17.69;73.62
65659;BME280;60181;53.258;6.932;2023-05-09T11:53:59;101323.13;;;17.69;73.36
65659;BME280;60181;53.258;6.932;2023-05-09T11:58:05;101317.91;;;17.69;73.49
65659;BME280;60181;53.258;6.932;2023-05-09T12:02:07;101313.44;;;17.69;73.55
65659;BME280;60181;53.258;6.932;2023-05-09T12:06:14;101308.87;;;17.69;73.52
65659;BME280;60181;53.258;6.932;2023-05-09T12:10:15;101304.22;;;17.69;73.69
65659;BME280;60181;53.258;6.932;2023-05-09T12:18:22;101292.39;;;17.71;73.67
65659;BME280;60181;53.258;6.932;2023-05-09T12:22:26;101284.95;;;17.72;73.58
65659;BME280;60181;53.258;6.932;2023-05-09T12:26:30;101278.83;;;17.75;73.30
65659;BME280;60181;53.258;6.932;2023-05-09T12:30:34;101274.13;;;17.78;73.24
65659;BME280;60181;53.258;6.932;2023-05-09T12:34:38;101268.59;;;17.82;73.14
65659;BME280;60181;53.258;6.932;2023-05-09T12:38:55;101262.41;;;17.84;73.41
65659;BME280;60181;53.258;6.932;2023-05-09T12:42:46;101257.28;;;17.86;73.16
65659;BME280;60181;53.258;6.932;2023-05-09T12:46:57;101253.47;;;17.88;73.22
65659;BME280;60181;53.258;6.932;2023-05-09T12:50:54;101247.93;;;17.89;73.30
65659;BME280;60181;53.258;6.932;2023-05-09T12:55:03;101241.05;;;17.89;73.24
65659;BME280;60181;53.258;6.932;2023-05-09T12:59:02;101236.50;;;17.90;73.19
65659;BME280;60181;53.258;6.932;2023-05-09T13:03:18;101231.19;;;17.90;73.25
65659;BME280;60181;53.258;6.932;2023-05-09T13:07:10;101226.11;;;17.90;73.60
65659;BME280;60181;53.258;6.932;2023-05-09T13:11:15;101224.28;;;17.89;74.39
65659;BME280;60181;53.258;6.932;2023-05-09T13:15:19;101222.72;;;17.87;74.72
65659;BME280;60181;53.258;6.932;2023-05-09T13:19:22;101219.64;;;17.85;74.65
65659;BME280;60181;53.258;6.932;2023-05-09T13:23:26;101216.25;;;17.83;74.60
65659;BME280;60181;53.258;6.932;2023-05-09T13:27:31;101213.16;;;17.82;74.84
65659;BME280;60181;53.258;6.932;2023-05-09T13:31:34;101209.53;;;17.81;74.72
65659;BME280;60181;53.258;6.932;2023-05-09T13:35:38;101206.45;;;17.80;74.47
65659;BME280;60181;53.258;6.932;2023-05-09T13:39:42;101203.89;;;17.80;74.27
65659;BME280;60181;53.258;6.932;2023-05-09T13:43:46;101200.32;;;17.80;74.30
65659;BME280;60181;53.258;6.932;2023-05-09T13:47:50;101194.61;;;17.81;74.18
65659;BME280;60181;53.258;6.932;2023-05-09T13:51:54;101186.80;;;17.82;73.93
65659;BME280;60181;53.258;6.932;2023-05-09T13:55:58;101178.96;;;17.83;74.09
65659;BME280;60181;53.258;6.932;2023-05-09T14:00:03;101171.50;;;17.85;74.07
65659;BME280;60181;53.258;6.932;2023-05-09T14:04:06;101163.89;;;17.86;73.88
65659;BME280;60181;53.258;6.932;2023-05-09T14:08:10;101157.92;;;17.87;74.59
65659;BME280;60181;53.258;6.932;2023-05-09T14:12:14;101152.62;;;17.87;74.30
65659;BME280;60181;53.258;6.932;2023-05-09T14:16:19;101146.72;;;17.86;74.42
65659;BME280;60181;53.258;6.932;2023-05-09T14:20:22;101141.43;;;17.85;75.04
65659;BME280;60181;53.258;6.932;2023-05-09T14:24:26;101138.85;;;17.85;75.39
65659;BME280;60181;53.258;6.932;2023-05-09T14:28:30;101136.86;;;17.84;75.47
65659;BME280;60181;53.258;6.932;2023-05-09T14:32:34;101135.52;;;17.83;75.69
65659;BME280;60181;53.258;6.932;2023-05-09T14:36:38;101134.69;;;17.82;75.77
65659;BME280;60181;53.258;6.932;2023-05-09T14:40:42;101133.54;;;17.81;75.82
65659;BME280;60181;53.258;6.932;2023-05-09T14:44:46;101130.66;;;17.81;75.79
65659;BME280;60181;53.258;6.932;2023-05-09T14:48:50;101128.83;;;17.81;75.99
65659;BME280;60181;53.258;6.932;2023-05-09T14:52:54;101126.33;;;17.80;76.14
65659;BME280;60181;53.258;6.932;2023-05-09T14:56:58;101123.74;;;17.79;75.97
65659;BME280;60181;53.258;6.932;2023-05-09T15:01:02;101120.09;;;17.78;76.33
65659;BME280;60181;53.258;6.932;2023-05-09T15:05:07;101117.78;;;17.78;76.13
65659;BME280;60181;53.258;6.932;2023-05-09T15:09:10;101114.98;;;17.77;76.12
65659;BME280;60181;53.258;6.932;2023-05-09T15:13:14;101112.99;;;17.77;76.21
65659;BME280;60181;53.258;6.932;2023-05-09T15:17:19;101111.83;;;17.77;76.45
65659;BME280;60181;53.258;6.932;2023-05-09T15:21:22;101110.02;;;17.77;76.38
65659;BME280;60181;53.258;6.932;2023-05-09T15:25:26;101108.59;;;17.78;76.30
65659;BME280;60181;53.258;6.932;2023-05-09T15:29:30;101108.08;;;17.78;76.24
65659;BME280;60181;53.258;6.932;2023-05-09T15:33:34;101106.69;;;17.78;76.46
65659;BME280;60181;53.258;6.932;2023-05-09T15:37:39;101105.20;;;17.77;76.85
65659;BME280;60181;53.258;6.932;2023-05-09T15:41:42;101103.71;;;17.77;76.39
65659;BME280;60181;53.258;6.932;2023-05-09T15:45:46;101102.39;;;17.77;76.46
65659;BME280;60181;53.258;6.932;2023-05-09T15:49:50;101099.63;;;17.77;76.63
65659;BME280;60181;53.258;6.932;2023-05-09T15:53:54;101098.07;;;17.77;76.88
65659;BME280;60181;53.258;6.932;2023-05-09T15:57:58;101095.75;;;17.76;76.76
65659;BME280;60181;53.258;6.932;2023-05-09T16:02:02;101092.66;;;17.76;76.81
65659;BME280;60181;53.258;6.932;2023-05-09T16:06:06;101089.70;;;17.76;76.71
65659;BME280;60181;53.258;6.932;2023-05-09T16:10:10;101087.47;;;17.75;76.79
65659;BME280;60181;53.258;6.932;2023-05-09T16:14:14;101085.47;;;17.75;76.91
65659;BME280;60181;53.258;6.932;2023-05-09T16:18:18;101082.31;;;17.75;76.82
65659;BME280;60181;53.258;6.932;2023-05-09T16:22:22;101079.57;;;17.74;76.74
65659;BME280;60181;53.258;6.932;2023-05-09T16:26:26;101076.76;;;17.74;76.47
65659;BME280;60181;53.258;6.932;2023-05-09T16:30:30;101072.96;;;17.73;76.30
65659;BME280;60181;53.258;6.932;2023-05-09T16:34:35;101068.80;;;17.73;76.18
65659;BME280;60181;53.258;6.932;2023-05-09T16:38:38;101064.90;;;17.72;76.01
65659;BME280;60181;53.258;6.932;2023-05-09T16:42:42;101061.19;;;17.71;76.20
65659;BME280;60181;53.258;6.932;2023-05-09T16:46:46;101057.54;;;17.70;76.42
65659;BME280;60181;53.258;6.932;2023-05-09T16:50:50;101053.47;;;17.69;75.88
65659;BME280;60181;53.258;6.932;2023-05-09T16:54:54;101050.16;;;17.69;75.82
65659;BME280;60181;53.258;6.932;2023-05-09T16:58:58;101047.50;;;17.68;75.76
65659;BME280;60181;53.258;6.932;2023-05-09T17:03:02;101045.50;;;17.67;75.62
65659;BME280;60181;53.258;6.932;2023-05-09T17:07:06;101042.95;;;17.66;75.48
65659;BME280;60181;53.258;6.932;2023-05-09T17:11:10;101040.61;;;17.65;75.51
65659;BME280;60181;53.258;6.932;2023-05-09T17:15:14;101038.87;;;17.63;75.54
65659;BME280;60181;53.258;6.932;2023-05-09T17:19:18;101037.55;;;17.62;75.61
65659;BME280;60181;53.258;6.932;2023-05-09T17:23:22;101036.13;;;17.62;75.47
65659;BME280;60181;53.258;6.932;2023-05-09T17:27:26;101034.80;;;17.61;75.43
65659;BME280;60181;53.258;6.932;2023-05-09T17:31:30;101033.83;;;17.60;75.47
65659;BME280;60181;53.258;6.932;2023-05-09T17:35:35;101031.75;;;17.59;75.08
65659;BME280;60181;53.258;6.932;2023-05-09T17:39:38;101030.25;;;17.58;75.20
65659;BME280;60181;53.258;6.932;2023-05-09T17:43:42;101027.59;;;17.57;75.49
65659;BME280;60181;53.258;6.932;2023-05-09T17:47:46;101024.19;;;17.56;75.34
65659;BME280;60181;53.258;6.932;2023-05-09T17:51:50;101021.36;;;17.55;75.51
65659;BME280;60181;53.258;6.932;2023-05-09T17:55:54;101018.32;;;17.54;75.61
65659;BME280;60181;53.258;6.932;2023-05-09T17:59:58;101016.15;;;17.54;75.46
65659;BME280;60181;53.258;6.932;2023-05-09T18:04:02;101013.59;;;17.53;75.62
65659;BME280;60181;53.258;6.932;2023-05-09T18:08:06;101010.35;;;17.53;75.54
65659;BME280;60181;53.258;6.932;2023-05-09T18:12:10;101006.86;;;17.52;75.66
65659;BME280;60181;53.258;6.932;2023-05-09T18:16:14;101003.99;;;17.51;75.52
65659;BME280;60181;53.258;6.932;2023-05-09T18:20:18;101001.90;;;17.50;75.08
65659;BME280;60181;53.258;6.932;2023-05-09T18:24:22;100999.82;;;17.49;75.34
65659;BME280;60181;53.258;6.932;2023-05-09T18:28:26;100997.61;;;17.48;75.67
65659;BME280;60181;53.258;6.932;2023-05-09T18:32:30;100996.59;;;17.48;75.29
65659;BME280;60181;53.258;6.932;2023-05-09T18:36:34;100996.01;;;17.48;75.60
65659;BME280;60181;53.258;6.932;2023-05-09T18:40:38;100995.12;;;17.47;75.38
65659;BME280;60181;53.258;6.932;2023-05-09T18:44:42;100993.34;;;17.46;75.43
65659;BME280;60181;53.258;6.932;2023-05-09T18:48:46;100991.22;;;17.45;75.54
65659;BME280;60181;53.258;6.932;2023-05-09T18:52:50;100989.78;;;17.44;75.61
65659;BME280;60181;53.258;6.932;2023-05-09T18:56:54;100987.64;;;17.43;75.53
65659;BME280;60181;53.258;6.932;2023-05-09T19:00:58;100985.65;;;17.42;75.55
65659;BME280;60181;53.258;6.932;2023-05-09T19:05:03;100985.57;;;17.41;75.58
65659;BME280;60181;53.258;6.932;2023-05-09T19:09:06;100985.99;;;17.41;75.45
65659;BME280;60181;53.258;6.932;2023-05-09T19:13:10;100984.91;;;17.40;75.55
65659;BME280;60181;53.258;6.932;2023-05-09T19:17:14;100985.33;;;17.40;75.41
65659;BME280;60181;53.258;6.932;2023-05-09T19:21:18;100985.80;;;17.39;75.46
65659;BME280;60181;53.258;6.932;2023-05-09T19:25:22;100986.16;;;17.41;75.14
65659;BME280;60181;53.258;6.932;2023-05-09T19:29:26;100986.64;;;17.42;74.46
65659;BME280;60181;53.258;6.932;2023-05-09T19:33:30;100987.23;;;17.43;74.91
65659;BME280;60181;53.258;6.932;2023-05-09T19:37:34;100987.07;;;17.43;74.75
65659;BME280;60181;53.258;6.932;2023-05-09T19:41:38;100987.39;;;17.44;74.62
65659;BME280;60181;53.258;6.932;2023-05-09T19:45:42;100987.05;;;17.44;74.45
65659;BME280;60181;53.258;6.932;2023-05-09T19:49:46;100986.49;;;17.43;74.56
65659;BME280;60181;53.258;6.932;2023-05-09T19:53:50;100987.07;;;17.43;74.37
65659;BME280;60181;53.258;6.932;2023-05-09T19:57:54;100987.22;;;17.43;74.29
65659;BME280;60181;53.258;6.932;2023-05-09T20:01:58;100988.30;;;17.42;74.33
65659;BME280;60181;53.258;6.932;2023-05-09T20:06:02;100987.48;;;17.42;74.17
65659;BME280;60181;53.258;6.932;2023-05-09T20:10:06;100986.38;;;17.41;74.15
65659;BME280;60181;53.258;6.932;2023-05-09T20:14:10;100986.06;;;17.41;74.24
65659;BME280;60181;53.258;6.932;2023-05-09T20:18:14;100986.24;;;17.41;74.10
65659;BME280;60181;53.258;6.932;2023-05-09T20:22:18;100985.00;;;17.41;74.06
65659;BME280;60181;53.258;6.932;2023-05-09T20:26:22;100983.89;;;17.40;74.02
65659;BME280;60181;53.258;6.932;2023-05-09T20:30:26;100982.25;;;17.40;73.99
65659;BME280;60181;53.258;6.932;2023-05-09T20:34:30;100980.74;;;17.39;74.03
65659;BME280;60181;53.258;6.932;2023-05-09T20:38:34;100979.85;;;17.39;74.03
65659;BME280;60181;53.258;6.932;2023-05-09T20:42:38;100977.59;;;17.38;73.94
65659;BME280;60181;53.258;6.932;2023-05-09T20:46:42;100975.70;;;17.38;73.96
65659;BME280;60181;53.258;6.932;2023-05-09T20:50:46;100973.22;;;17.38;73.96
65659;BME280;60181;53.258;6.932;2023-05-09T20:54:50;100969.73;;;17.37;73.98
65659;BME280;60181;53.258;6.932;2023-05-09T20:58:54;100967.74;;;17.37;73.93
65659;BME280;60181;53.258;6.932;2023-05-09T21:02:58;100966.09;;;17.37;73.85
65659;BME280;60181;53.258;6.932;2023-05-09T21:07:02;100963.03;;;17.37;73.87
65659;BME280;60181;53.258;6.932;2023-05-09T21:11:06;100962.20;;;17.37;73.81
65659;BME280;60181;53.258;6.932;2023-05-09T21:15:10;100960.46;;;17.37;74.28
65659;BME280;60181;53.258;6.932;2023-05-09T21:19:14;100958.48;;;17.39;73.76
65659;BME280;60181;53.258;6.932;2023-05-09T21:23:18;100957.23;;;17.41;73.26
65659;BME280;60181;53.258;6.932;2023-05-09T21:27:22;100955.33;;;17.44;73.67
65659;BME280;60181;53.258;6.932;2023-05-09T21:31:26;100954.03;;;17.45;73.65
65659;BME280;60181;53.258;6.932;2023-05-09T21:35:30;100952.12;;;17.47;73.67
65659;BME280;60181;53.258;6.932;2023-05-09T21:39:34;100947.97;;;17.47;73.69
65659;BME280;60181;53.258;6.932;2023-05-09T21:43:38;100945.92;;;17.48;73.80
65659;BME280;60181;53.258;6.932;2023-05-09T21:47:42;100944.44;;;17.48;73.70
65659;BME280;60181;53.258;6.932;2023-05-09T21:51:46;100942.46;;;17.48;73.65
65659;BME280;60181;53.258;6.932;2023-05-09T21:55:50;100941.78;;;17.49;73.60